createdAt,value
2018-05-26T00:01:54.426Z,19.90
2018-05-26T00:06:55.433Z,19.90
2018-05-26T00:11:58.054Z,19.80
2018-05-26T00:16:59.085Z,19.80
2018-05-26T00:22:00.106Z,19.60
2018-05-26T00:27:01.867Z,19.60
2018-05-26T00:32:02.869Z,19.50
2018-05-26T00:37:03.889Z,19.70
2018-05-26T00:42:05.650Z,19.60
2018-05-26T00:47:06.659Z,19.60
2018-05-26T00:52:07.678Z,19.60
2018-05-26T00:57:08.699Z,19.40
2018-05-26T01:02:09.710Z,19.40
2018-05-26T01:07:11.471Z,19.30
2018-05-26T01:12:12.528Z,19.30
2018-05-26T01:17:13.566Z,19.20
2018-05-26T01:22:14.595Z,19.10
2018-05-26T01:27:15.626Z,19.20
2018-05-26T01:32:17.379Z,19.00
2018-05-26T01:37:18.386Z,19.00
2018-05-26T01:42:19.402Z,18.80
2018-05-26T01:47:21.159Z,18.20
2018-05-26T01:52:22.165Z,18.20
2018-05-26T01:57:23.165Z,18.10
2018-05-26T02:02:24.183Z,18.00
2018-05-26T02:07:25.206Z,17.50
2018-05-26T02:12:26.209Z,17.70
2018-05-26T02:17:27.220Z,17.70
2018-05-26T02:22:28.215Z,18.00
2018-05-26T02:27:29.237Z,18.20
2018-05-26T02:32:30.282Z,17.60
2018-05-26T02:37:31.305Z,17.50
2018-05-26T02:42:32.312Z,17.70
2018-05-26T02:47:33.327Z,17.60
2018-05-26T02:52:34.331Z,17.30
2018-05-26T02:57:36.066Z,16.90
2018-05-26T03:02:37.129Z,16.90
2018-05-26T03:07:44.243Z,17.30
2018-05-26T03:12:51.326Z,17.50
2018-05-26T03:17:57.262Z,17.60
2018-05-26T03:22:58.245Z,17.60
2018-05-26T03:27:59.706Z,17.20
2018-05-26T03:33:02.349Z,16.50
2018-05-26T03:38:03.366Z,16.40
2018-05-26T03:43:04.399Z,16.50
2018-05-26T03:48:05.423Z,17.00
2018-05-26T03:53:06.433Z,17.20
2018-05-26T03:58:19.838Z,17.30
2018-05-26T04:03:21.596Z,17.80
2018-05-26T04:08:22.626Z,17.80
2018-05-26T04:13:23.626Z,17.50
2018-05-26T04:18:24.625Z,18.00
2018-05-26T04:23:25.634Z,18.40
2018-05-26T04:28:26.637Z,18.70
2018-05-26T04:33:27.642Z,18.80
2018-05-26T04:38:28.742Z,18.60
2018-05-26T04:43:30.842Z,18.50
2018-05-26T04:48:32.839Z,19.00
2018-05-26T04:53:33.914Z,19.00
2018-05-26T04:58:34.956Z,19.20
2018-05-26T05:03:35.982Z,19.50
2018-05-26T05:08:37.220Z,19.80
2018-05-26T05:13:38.456Z,19.90
2018-05-26T05:18:39.530Z,20.10
2018-05-26T05:23:40.549Z,20.10
2018-05-26T05:28:41.722Z,19.80
2018-05-26T05:33:43.720Z,21.00
2018-05-26T05:38:44.766Z,20.90
2018-05-26T05:43:45.782Z,21.30
2018-05-26T05:48:46.800Z,21.30
2018-05-26T05:53:48.549Z,22.20
2018-05-26T05:58:49.561Z,22.10
2018-05-26T06:03:50.607Z,22.40
2018-05-26T06:08:51.611Z,22.40
2018-05-26T06:13:52.651Z,22.20
2018-05-26T06:18:53.668Z,22.60
2018-05-26T06:23:54.686Z,22.30
2018-05-26T06:28:55.695Z,22.90
2018-05-26T06:33:56.760Z,23.40
2018-05-26T06:38:57.761Z,23.30
2018-05-26T06:43:58.766Z,23.70
2018-05-26T06:48:59.769Z,24.00
2018-05-26T06:54:00.810Z,24.50
2018-05-26T06:59:01.829Z,24.50
2018-05-26T07:04:03.593Z,25.00
2018-05-26T07:09:05.095Z,25.00
2018-05-26T07:14:06.109Z,25.00
2018-05-26T07:19:07.114Z,25.30
2018-05-26T07:24:08.139Z,25.10
2018-05-26T07:29:09.264Z,25.10
2018-05-26T07:34:10.278Z,25.40
2018-05-26T07:39:11.336Z,25.30
2018-05-26T07:44:12.341Z,25.70
2018-05-26T07:49:13.347Z,25.60
2018-05-26T07:54:14.364Z,25.80
2018-05-26T07:59:15.384Z,25.80
2018-05-26T08:04:16.400Z,25.60
2018-05-26T08:09:18.146Z,25.90
2018-05-26T08:14:19.170Z,25.80
2018-05-26T08:19:20.188Z,25.80
2018-05-26T08:24:22.002Z,26.40
2018-05-26T08:29:22.997Z,26.40
2018-05-26T08:34:24.004Z,26.00
2018-05-26T08:39:25.750Z,26.40
2018-05-26T08:44:26.759Z,26.40
2018-05-26T08:49:27.765Z,27.20
2018-05-26T08:54:28.794Z,27.00
2018-05-26T08:59:29.822Z,27.20
2018-05-26T09:04:30.843Z,27.40
2018-05-26T09:09:31.967Z,27.00
2018-05-26T09:14:32.974Z,27.10
2018-05-26T09:19:34.718Z,27.60
2018-05-26T09:24:35.754Z,27.50
2018-05-26T09:29:36.794Z,27.60
2018-05-26T09:34:37.848Z,27.60
2018-05-26T09:39:38.927Z,27.70
2018-05-26T09:44:39.954Z,27.00
2018-05-26T09:49:41.004Z,27.40
2018-05-26T09:54:42.754Z,27.50
2018-05-26T09:59:43.787Z,27.40
2018-05-26T10:04:44.819Z,28.10
2018-05-26T10:09:45.826Z,26.90
2018-05-26T10:14:46.834Z,27.20
2018-05-26T10:19:47.846Z,26.40
2018-05-26T10:24:48.890Z,27.80
2018-05-26T10:29:49.902Z,27.30
2018-05-26T10:34:51.651Z,27.10
2018-05-26T10:39:52.667Z,27.10
2018-05-26T10:44:53.699Z,27.90
2018-05-26T10:49:54.766Z,27.90
2018-05-26T10:54:56.489Z,28.10
2018-05-26T10:59:57.509Z,28.10
2018-05-26T11:04:58.536Z,28.10
2018-05-26T11:10:00.291Z,27.60
2018-05-26T11:15:01.307Z,27.50
2018-05-26T11:20:02.350Z,27.80
2018-05-26T11:25:03.370Z,27.30
2018-05-26T11:30:05.253Z,27.20
2018-05-26T11:35:07.017Z,27.20
2018-05-26T11:40:08.034Z,27.10
2018-05-26T11:45:09.061Z,27.40
2018-05-26T11:50:10.838Z,27.30
2018-05-26T11:55:13.685Z,27.50
2018-05-26T12:00:14.706Z,27.50
2018-05-26T12:05:16.540Z,28.10
2018-05-26T12:10:17.590Z,28.00
2018-05-26T12:15:18.814Z,27.60
2018-05-26T12:20:20.024Z,27.70
2018-05-26T12:25:21.057Z,28.10
2018-05-26T12:30:22.046Z,27.60
2018-05-26T12:35:23.054Z,27.80
2018-05-26T12:40:24.148Z,28.20
2018-05-26T12:45:25.190Z,27.70
2018-05-26T12:50:26.257Z,27.10
2018-05-26T12:55:27.291Z,27.30
2018-05-26T13:00:28.318Z,27.40
2018-05-26T13:05:29.314Z,27.50
2018-05-26T13:10:30.338Z,27.60
2018-05-26T13:15:32.106Z,27.90
2018-05-26T13:20:33.111Z,27.90
2018-05-26T13:25:34.140Z,27.70
2018-05-26T13:30:35.897Z,27.50
2018-05-26T13:35:36.936Z,27.40
2018-05-26T13:40:37.989Z,27.40
2018-05-26T13:45:39.006Z,27.60
2018-05-26T13:50:40.076Z,28.00
2018-05-26T13:55:41.086Z,27.50
2018-05-26T14:00:42.099Z,28.00
2018-05-26T14:05:43.116Z,28.30
2018-05-26T14:10:44.890Z,28.40
2018-05-26T14:15:46.655Z,28.60
2018-05-26T14:20:48.429Z,28.70
2018-05-26T14:25:49.477Z,28.60
2018-05-26T14:30:51.482Z,28.10
2018-05-26T14:35:53.316Z,27.60
2018-05-26T14:40:54.330Z,27.60
2018-05-26T14:45:56.093Z,27.70
2018-05-26T14:50:59.859Z,27.50
2018-05-26T14:56:01.038Z,27.40
2018-05-26T15:01:02.095Z,27.60
2018-05-26T15:06:03.114Z,27.90
2018-05-26T15:11:04.857Z,28.00
2018-05-26T15:16:05.887Z,28.00
2018-05-26T15:21:06.913Z,27.90
2018-05-26T15:26:07.922Z,27.80
2018-05-26T15:31:08.945Z,28.10
2018-05-26T15:36:09.938Z,27.80
2018-05-26T15:41:10.958Z,27.90
2018-05-26T15:46:11.991Z,27.80
2018-05-26T15:51:13.019Z,27.60
2018-05-26T15:56:14.031Z,27.70
2018-05-26T16:01:15.042Z,27.60
2018-05-26T16:06:16.814Z,27.40
2018-05-26T16:11:17.835Z,27.40
2018-05-26T16:16:18.857Z,27.50
2018-05-26T16:21:19.899Z,27.30
2018-05-26T16:26:21.715Z,27.60
2018-05-26T16:31:22.742Z,27.50
2018-05-26T16:36:24.521Z,27.50
2018-05-26T16:41:26.318Z,27.50
2018-05-26T16:46:27.335Z,27.40
2018-05-26T16:51:29.089Z,27.00
2018-05-26T16:56:30.099Z,27.00
2018-05-26T17:01:31.122Z,27.20
2018-05-26T17:06:32.159Z,27.20
2018-05-26T17:11:33.200Z,27.20
2018-05-26T17:16:34.277Z,27.20
2018-05-26T17:21:35.246Z,27.30
2018-05-26T17:26:36.274Z,27.10
2018-05-26T17:31:37.289Z,27.10
2018-05-26T17:36:39.070Z,26.90
2018-05-26T17:41:40.074Z,26.90
2018-05-26T17:46:41.073Z,26.90
2018-05-26T17:51:42.833Z,26.80
2018-05-26T17:56:43.861Z,26.80
2018-05-26T18:01:44.879Z,26.70
2018-05-26T18:06:46.686Z,26.70
2018-05-26T18:11:47.702Z,26.60
2018-05-26T18:16:49.462Z,26.40
2018-05-26T18:21:50.474Z,26.40
2018-05-26T18:26:51.488Z,26.30
2018-05-26T18:31:52.546Z,26.20
2018-05-26T18:36:53.544Z,26.10
2018-05-26T18:41:54.553Z,26.00
2018-05-26T18:46:55.564Z,25.80
2018-05-26T18:51:56.579Z,25.60
2018-05-26T18:56:57.603Z,25.50
2018-05-26T19:01:58.696Z,25.30
2018-05-26T19:06:59.805Z,25.10
2018-05-26T19:12:02.410Z,24.80
2018-05-26T19:17:03.442Z,24.70
2018-05-26T19:22:04.436Z,24.50
2018-05-26T19:27:05.486Z,24.40
2018-05-26T19:32:06.527Z,24.30
2018-05-26T19:37:07.562Z,24.00
2018-05-26T19:42:09.312Z,24.00
2018-05-26T19:47:10.338Z,24.00
2018-05-26T19:52:11.366Z,23.90
2018-05-26T19:57:12.427Z,23.70
2018-05-26T20:02:14.049Z,23.50
2018-05-26T20:07:15.061Z,23.50
2018-05-26T20:12:16.077Z,23.20
2018-05-26T20:17:17.081Z,23.00
2018-05-26T20:22:18.093Z,22.90
2018-05-26T20:27:19.109Z,22.90
2018-05-26T20:32:20.139Z,22.90
2018-05-26T20:37:21.886Z,22.70
2018-05-26T20:42:22.904Z,22.60
2018-05-26T20:47:23.903Z,22.70
2018-05-26T20:52:24.909Z,22.60
2018-05-26T20:57:25.902Z,22.40
2018-05-26T21:02:26.917Z,22.40
2018-05-26T21:07:27.976Z,22.40
2018-05-26T21:12:28.986Z,22.50
2018-05-26T21:17:29.995Z,22.40
2018-05-26T21:22:30.994Z,22.30
2018-05-26T21:27:32.000Z,22.30
2018-05-26T21:32:32.996Z,22.10
2018-05-26T21:37:33.994Z,22.00
2018-05-26T21:42:35.742Z,21.80
2018-05-26T21:47:36.766Z,21.80
2018-05-26T21:52:37.814Z,21.70
2018-05-26T21:57:39.562Z,21.70
2018-05-26T22:02:41.318Z,21.60
2018-05-26T22:07:42.330Z,21.60
2018-05-26T22:12:43.350Z,21.60
2018-05-26T22:17:45.119Z,21.40
2018-05-26T22:22:46.142Z,21.20
2018-05-26T22:27:47.168Z,21.30
2018-05-26T22:32:48.172Z,21.30
2018-05-26T22:37:49.173Z,21.20
2018-05-26T22:42:50.920Z,21.00
2018-05-26T22:47:51.938Z,21.00
2018-05-26T22:52:52.967Z,21.00
2018-05-26T22:57:54.713Z,20.90
2018-05-26T23:02:55.710Z,20.80
2018-05-26T23:07:56.724Z,21.00
2018-05-26T23:12:57.722Z,20.90
2018-05-26T23:17:58.721Z,20.90
2018-05-26T23:22:59.746Z,21.00
2018-05-26T23:28:00.752Z,20.90
2018-05-26T23:33:01.754Z,20.90
2018-05-26T23:38:02.758Z,21.00
2018-05-26T23:43:03.787Z,21.00
2018-05-26T23:48:04.791Z,21.00
2018-05-26T23:53:05.813Z,20.90
2018-05-26T23:58:06.838Z,20.70
